sensor_id;sensor_type;location;lat;lon;timestamp;P1;durP1;ratioP1;P2;durP2;ratioP2
5175;SDS011;2607;50.934;6.934;2022-07-18T00:01:55;2.20;;;2.10;;
5175;SDS011;2607;50.934;6.934;2022-07-18T00:04:22;3.70;;;2.67;;
5175;SDS011;2607;50.934;6.934;2022-07-18T00:06:48;2.93;;;2.30;;
5175;SDS011;2607;50.934;6.934;2022-07-18T00:09:13;4.53;;;2.17;;
5175;SDS011;2607;50.934;6.934;2022-07-18T00:11:39;4.80;;;2.10;;
5175;SDS011;2607;50.934;6.934;2022-07-18T00:14:05;2.63;;;2.50;;
5175;SDS011;2607;50.934;6.934;2022-07-18T00:16:31;4.43;;;2.20;;
5175;SDS011;2607;50.934;6.934;2022-07-18T00:18:56;6.60;;;2.80;;
5175;SDS011;2607;50.934;6.934;2022-07-18T00:21:25;3.27;;;3.03;;
5175;SDS011;2607;50.934;6.934;2022-07-18T00:23:51;3.03;;;2.83;;
5175;SDS011;2607;50.934;6.934;2022-07-18T00:26:17;2.47;;;2.27;;
5175;SDS011;2607;50.934;6.934;2022-07-18T00:28:42;2.90;;;2.50;;
5175;SDS011;2607;50.934;6.934;2022-07-18T00:31:08;5.27;;;2.63;;
5175;SDS011;2607;50.934;6.934;2022-07-18T00:33:33;2.67;;;2.47;;
5175;SDS011;2607;50.934;6.934;2022-07-18T00:35:59;3.40;;;2.30;;
5175;SDS011;2607;50.934;6.934;2022-07-18T00:38:25;5.03;;;2.30;;
5175;SDS011;2607;50.934;6.934;2022-07-18T00:40:50;2.77;;;2.10;;
5175;SDS011;2607;50.934;6.934;2022-07-18T00:43:16;8.83;;;2.00;;
5175;SDS011;2607;50.934;6.934;2022-07-18T00:45:45;14.97;;;3.37;;
5175;SDS011;2607;50.934;6.934;2022-07-18T00:48:13;3.43;;;2.30;;
5175;SDS011;2607;50.934;6.934;2022-07-18T00:50:39;2.30;;;2.10;;
5175;SDS011;2607;50.934;6.934;2022-07-18T00:53:05;3.20;;;1.87;;
5175;SDS011;2607;50.934;6.934;2022-07-18T00:55:32;3.77;;;2.10;;
5175;SDS011;2607;50.934;6.934;2022-07-18T00:57:59;2.60;;;2.00;;
5175;SDS011;2607;50.934;6.934;2022-07-18T01:00:25;12.10;;;2.00;;
5175;SDS011;2607;50.934;6.934;2022-07-18T01:03:09;2.53;;;2.30;;
5175;SDS011;2607;50.934;6.934;2022-07-18T01:05:35;3.23;;;2.10;;
5175;SDS011;2607;50.934;6.934;2022-07-18T01:08:01;6.30;;;2.00;;
5175;SDS011;2607;50.934;6.934;2022-07-18T01:10:27;3.37;;;2.33;;
5175;SDS011;2607;50.934;6.934;2022-07-18T01:12:52;2.90;;;1.70;;
5175;SDS011;2607;50.934;6.934;2022-07-18T01:15:18;2.10;;;1.37;;
5175;SDS011;2607;50.934;6.934;2022-07-18T01:17:44;2.00;;;1.77;;
5175;SDS011;2607;50.934;6.934;2022-07-18T01:20:10;1.70;;;1.60;;
5175;SDS011;2607;50.934;6.934;2022-07-18T01:22:36;1.93;;;1.83;;
5175;SDS011;2607;50.934;6.934;2022-07-18T01:25:04;2.50;;;1.90;;
5175;SDS011;2607;50.934;6.934;2022-07-18T01:27:30;2.97;;;1.90;;
5175;SDS011;2607;50.934;6.934;2022-07-18T01:29:56;1.87;;;1.73;;
5175;SDS011;2607;50.934;6.934;2022-07-18T01:32:21;1.80;;;1.70;;
5175;SDS011;2607;50.934;6.934;2022-07-18T01:34:48;4.20;;;1.80;;
5175;SDS011;2607;50.934;6.934;2022-07-18T01:37:14;1.90;;;1.80;;
5175;SDS011;2607;50.934;6.934;2022-07-18T01:39:44;2.10;;;1.80;;
5175;SDS011;2607;50.934;6.934;2022-07-18T01:42:10;1.93;;;1.70;;
5175;SDS011;2607;50.934;6.934;2022-07-18T01:44:37;2.40;;;1.90;;
5175;SDS011;2607;50.934;6.934;2022-07-18T01:47:04;2.13;;;1.93;;
5175;SDS011;2607;50.934;6.934;2022-07-18T01:49:31;3.03;;;1.90;;
5175;SDS011;2607;50.934;6.934;2022-07-18T01:51:57;2.00;;;1.80;;
5175;SDS011;2607;50.934;6.934;2022-07-18T01:54:24;3.27;;;2.00;;
5175;SDS011;2607;50.934;6.934;2022-07-18T01:56:51;2.60;;;2.40;;
5175;SDS011;2607;50.934;6.934;2022-07-18T01:59:17;2.13;;;1.70;;
5175;SDS011;2607;50.934;6.934;2022-07-18T02:01:44;2.27;;;1.90;;
5175;SDS011;2607;50.934;6.934;2022-07-18T02:04:09;2.40;;;1.90;;
5175;SDS011;2607;50.934;6.934;2022-07-18T02:06:35;2.00;;;1.90;;
5175;SDS011;2607;50.934;6.934;2022-07-18T02:09:01;3.70;;;1.87;;
5175;SDS011;2607;50.934;6.934;2022-07-18T02:11:27;1.83;;;1.73;;
5175;SDS011;2607;50.934;6.934;2022-07-18T02:13:53;2.47;;;1.50;;
5175;SDS011;2607;50.934;6.934;2022-07-18T02:16:19;3.17;;;1.90;;
5175;SDS011;2607;50.934;6.934;2022-07-18T02:18:44;2.03;;;1.70;;
5175;SDS011;2607;50.934;6.934;2022-07-18T02:21:10;2.20;;;2.00;;
5175;SDS011;2607;50.934;6.934;2022-07-18T02:23:38;2.37;;;1.87;;
5175;SDS011;2607;50.934;6.934;2022-07-18T02:26:04;2.20;;;2.00;;
5175;SDS011;2607;50.934;6.934;2022-07-18T02:28:30;3.23;;;1.50;;
5175;SDS011;2607;50.934;6.934;2022-07-18T02:30:56;1.80;;;1.70;;
5175;SDS011;2607;50.934;6.934;2022-07-18T02:33:22;4.33;;;2.50;;
5175;SDS011;2607;50.934;6.934;2022-07-18T02:35:47;1.90;;;1.77;;
5175;SDS011;2607;50.934;6.934;2022-07-18T02:38:13;1.87;;;1.77;;
5175;SDS011;2607;50.934;6.934;2022-07-18T02:40:38;1.90;;;1.80;;
5175;SDS011;2607;50.934;6.934;2022-07-18T02:43:04;2.00;;;1.80;;
5175;SDS011;2607;50.934;6.934;2022-07-18T02:45:30;8.33;;;2.13;;
5175;SDS011;2607;50.934;6.934;2022-07-18T02:47:55;2.60;;;2.03;;
5175;SDS011;2607;50.934;6.934;2022-07-18T02:50:21;4.77;;;2.33;;
5175;SDS011;2607;50.934;6.934;2022-07-18T02:52:47;3.30;;;1.93;;
5175;SDS011;2607;50.934;6.934;2022-07-18T02:55:13;2.00;;;1.90;;
5175;SDS011;2607;50.934;6.934;2022-07-18T02:57:39;1.90;;;1.80;;
5175;SDS011;2607;50.934;6.934;2022-07-18T03:00:07;2.10;;;1.90;;
5175;SDS011;2607;50.934;6.934;2022-07-18T03:02:38;2.17;;;2.03;;
5175;SDS011;2607;50.934;6.934;2022-07-18T03:05:04;9.37;;;1.73;;
5175;SDS011;2607;50.934;6.934;2022-07-18T03:07:30;2.90;;;2.00;;
5175;SDS011;2607;50.934;6.934;2022-07-18T03:09:56;2.90;;;2.20;;
5175;SDS011;2607;50.934;6.934;2022-07-18T03:12:22;2.07;;;1.97;;
5175;SDS011;2607;50.934;6.934;2022-07-18T03:14:47;3.40;;;2.00;;
5175;SDS011;2607;50.934;6.934;2022-07-18T03:17:13;1.87;;;1.77;;
5175;SDS011;2607;50.934;6.934;2022-07-18T03:19:39;1.73;;;1.63;;
5175;SDS011;2607;50.934;6.934;2022-07-18T03:22:04;2.43;;;2.33;;
5175;SDS011;2607;50.934;6.934;2022-07-18T03:24:30;2.87;;;2.07;;
5175;SDS011;2607;50.934;6.934;2022-07-18T03:26:56;1.97;;;1.87;;
5175;SDS011;2607;50.934;6.934;2022-07-18T03:29:22;3.13;;;2.20;;
5175;SDS011;2607;50.934;6.934;2022-07-18T03:31:48;8.00;;;2.20;;
5175;SDS011;2607;50.934;6.934;2022-07-18T03:34:13;3.73;;;2.40;;
5175;SDS011;2607;50.934;6.934;2022-07-18T03:36:39;3.13;;;2.87;;
5175;SDS011;2607;50.934;6.934;2022-07-18T03:39:05;2.63;;;2.43;;
5175;SDS011;2607;50.934;6.934;2022-07-18T03:41:31;2.10;;;2.00;;
5175;SDS011;2607;50.934;6.934;2022-07-18T03:43:57;6.23;;;3.70;;
5175;SDS011;2607;50.934;6.934;2022-07-18T03:46:23;2.90;;;2.63;;
5175;SDS011;2607;50.934;6.934;2022-07-18T03:48:48;4.77;;;2.87;;
5175;SDS011;2607;50.934;6.934;2022-07-18T03:51:14;2.67;;;2.20;;
5175;SDS011;2607;50.934;6.934;2022-07-18T03:53:40;4.60;;;2.20;;
5175;SDS011;2607;50.934;6.934;2022-07-18T03:56:06;8.20;;;1.90;;
5175;SDS011;2607;50.934;6.934;2022-07-18T03:58:31;3.00;;;2.47;;
5175;SDS011;2607;50.934;6.934;2022-07-18T04:00:57;3.10;;;2.80;;
5175;SDS011;2607;50.934;6.934;2022-07-18T04:03:23;4.03;;;2.60;;
5175;SDS011;2607;50.934;6.934;2022-07-18T04:05:48;3.80;;;2.47;;
5175;SDS011;2607;50.934;6.934;2022-07-18T04:08:14;2.10;;;1.90;;
5175;SDS011;2607;50.934;6.934;2022-07-18T04:10:40;2.07;;;1.87;;
5175;SDS011;2607;50.934;6.934;2022-07-18T04:13:06;2.00;;;1.90;;
5175;SDS011;2607;50.934;6.934;2022-07-18T04:15:33;4.07;;;2.17;;
5175;SDS011;2607;50.934;6.934;2022-07-18T04:17:58;2.80;;;1.90;;
5175;SDS011;2607;50.934;6.934;2022-07-18T04:20:24;5.10;;;4.33;;
5175;SDS011;2607;50.934;6.934;2022-07-18T04:22:54;3.53;;;3.20;;
5175;SDS011;2607;50.934;6.934;2022-07-18T04:25:22;2.33;;;2.13;;
5175;SDS011;2607;50.934;6.934;2022-07-18T04:27:48;2.80;;;2.60;;
5175;SDS011;2607;50.934;6.934;2022-07-18T04:30:16;3.60;;;3.40;;
5175;SDS011;2607;50.934;6.934;2022-07-18T04:32:43;2.73;;;2.53;;
5175;SDS011;2607;50.934;6.934;2022-07-18T04:35:09;5.57;;;2.40;;
5175;SDS011;2607;50.934;6.934;2022-07-18T04:37:36;5.50;;;4.93;;
5175;SDS011;2607;50.934;6.934;2022-07-18T04:40:03;2.70;;;2.27;;
5175;SDS011;2607;50.934;6.934;2022-07-18T04:42:29;6.83;;;5.03;;
5175;SDS011;2607;50.934;6.934;2022-07-18T04:44:58;4.67;;;3.83;;
5175;SDS011;2607;50.934;6.934;2022-07-18T04:47:24;5.33;;;2.30;;
5175;SDS011;2607;50.934;6.934;2022-07-18T04:49:50;3.30;;;2.10;;
5175;SDS011;2607;50.934;6.934;2022-07-18T04:52:16;3.00;;;2.50;;
5175;SDS011;2607;50.934;6.934;2022-07-18T04:54:42;3.37;;;2.43;;
5175;SDS011;2607;50.934;6.934;2022-07-18T04:57:07;13.13;;;4.83;;
5175;SDS011;2607;50.934;6.934;2022-07-18T04:59:35;2.07;;;1.97;;
5175;SDS011;2607;50.934;6.934;2022-07-18T05:02:01;3.90;;;2.03;;
5175;SDS011;2607;50.934;6.934;2022-07-18T05:04:27;3.57;;;2.87;;
5175;SDS011;2607;50.934;6.934;2022-07-18T05:06:52;2.93;;;2.63;;
5175;SDS011;2607;50.934;6.934;2022-07-18T05:09:18;2.60;;;2.50;;
5175;SDS011;2607;50.934;6.934;2022-07-18T05:11:44;24.83;;;5.33;;
5175;SDS011;2607;50.934;6.934;2022-07-18T05:14:09;5.90;;;5.30;;
5175;SDS011;2607;50.934;6.934;2022-07-18T05:16:35;14.53;;;8.40;;
5175;SDS011;2607;50.934;6.934;2022-07-18T05:19:00;6.93;;;2.53;;
5175;SDS011;2607;50.934;6.934;2022-07-18T05:21:26;4.40;;;2.70;;
5175;SDS011;2607;50.934;6.934;2022-07-18T05:23:51;2.33;;;2.00;;
5175;SDS011;2607;50.934;6.934;2022-07-18T05:26:17;2.83;;;1.77;;
5175;SDS011;2607;50.934;6.934;2022-07-18T05:28:42;4.50;;;1.87;;
5175;SDS011;2607;50.934;6.934;2022-07-18T05:31:08;3.70;;;2.53;;
5175;SDS011;2607;50.934;6.934;2022-07-18T05:33:34;3.83;;;3.00;;
5175;SDS011;2607;50.934;6.934;2022-07-18T05:35:59;4.37;;;2.10;;
5175;SDS011;2607;50.934;6.934;2022-07-18T05:38:25;8.43;;;1.93;;
5175;SDS011;2607;50.934;6.934;2022-07-18T05:40:50;2.67;;;1.73;;
5175;SDS011;2607;50.934;6.934;2022-07-18T05:43:16;2.33;;;1.60;;
5175;SDS011;2607;50.934;6.934;2022-07-18T05:45:41;2.10;;;1.83;;
5175;SDS011;2607;50.934;6.934;2022-07-18T05:48:07;2.07;;;1.87;;
5175;SDS011;2607;50.934;6.934;2022-07-18T05:50:33;4.10;;;2.00;;
5175;SDS011;2607;50.934;6.934;2022-07-18T05:52:58;2.10;;;1.70;;
5175;SDS011;2607;50.934;6.934;2022-07-18T05:55:24;3.97;;;1.90;;
5175;SDS011;2607;50.934;6.934;2022-07-18T05:57:50;1.87;;;1.60;;
5175;SDS011;2607;50.934;6.934;2022-07-18T06:00:16;4.53;;;2.50;;
5175;SDS011;2607;50.934;6.934;2022-07-18T06:02:42;6.10;;;1.80;;
5175;SDS011;2607;50.934;6.934;2022-07-18T06:05:08;2.00;;;1.90;;
5175;SDS011;2607;50.934;6.934;2022-07-18T06:07:35;2.00;;;1.90;;
5175;SDS011;2607;50.934;6.934;2022-07-18T06:10:00;4.00;;;2.07;;
5175;SDS011;2607;50.934;6.934;2022-07-18T06:12:29;5.03;;;1.70;;
5175;SDS011;2607;50.934;6.934;2022-07-18T06:14:56;2.30;;;1.70;;
5175;SDS011;2607;50.934;6.934;2022-07-18T06:17:22;3.23;;;2.20;;
5175;SDS011;2607;50.934;6.934;2022-07-18T06:19:48;2.03;;;1.80;;
5175;SDS011;2607;50.934;6.934;2022-07-18T06:22:13;1.70;;;1.60;;
5175;SDS011;2607;50.934;6.934;2022-07-18T06:24:39;2.47;;;1.67;;
5175;SDS011;2607;50.934;6.934;2022-07-18T06:27:05;4.67;;;1.70;;
5175;SDS011;2607;50.934;6.934;2022-07-18T06:29:30;2.60;;;1.70;;
5175;SDS011;2607;50.934;6.934;2022-07-18T06:31:56;3.17;;;1.43;;
5175;SDS011;2607;50.934;6.934;2022-07-18T06:34:21;2.20;;;2.00;;
5175;SDS011;2607;50.934;6.934;2022-07-18T06:36:47;2.67;;;1.70;;
5175;SDS011;2607;50.934;6.934;2022-07-18T06:39:12;1.80;;;1.70;;
5175;SDS011;2607;50.934;6.934;2022-07-18T06:41:41;3.33;;;2.00;;
5175;SDS011;2607;50.934;6.934;2022-07-18T06:44:07;3.13;;;1.80;;
5175;SDS011;2607;50.934;6.934;2022-07-18T06:46:32;3.47;;;1.57;;
5175;SDS011;2607;50.934;6.934;2022-07-18T06:48:58;3.50;;;2.03;;
5175;SDS011;2607;50.934;6.934;2022-07-18T06:51:24;2.10;;;1.90;;
5175;SDS011;2607;50.934;6.934;2022-07-18T06:53:50;6.73;;;1.93;;
5175;SDS011;2607;50.934;6.934;2022-07-18T06:56:16;2.67;;;1.80;;
5175;SDS011;2607;50.934;6.934;2022-07-18T06:58:42;2.87;;;2.20;;
5175;SDS011;2607;50.934;6.934;2022-07-18T07:01:13;2.30;;;2.03;;
5175;SDS011;2607;50.934;6.934;2022-07-18T07:03:43;4.13;;;1.87;;
5175;SDS011;2607;50.934;6.934;2022-07-18T07:06:08;5.73;;;1.57;;
5175;SDS011;2607;50.934;6.934;2022-07-18T07:08:34;2.20;;;2.10;;
5175;SDS011;2607;50.934;6.934;2022-07-18T07:11:00;2.37;;;2.00;;
5175;SDS011;2607;50.934;6.934;2022-07-18T07:13:26;2.20;;;1.90;;
5175;SDS011;2607;50.934;6.934;2022-07-18T07:15:51;2.00;;;1.67;;
5175;SDS011;2607;50.934;6.934;2022-07-18T07:18:17;4.63;;;1.77;;
5175;SDS011;2607;50.934;6.934;2022-07-18T07:20:43;3.30;;;1.50;;
5175;SDS011;2607;50.934;6.934;2022-07-18T07:23:08;6.57;;;1.70;;
5175;SDS011;2607;50.934;6.934;2022-07-18T07:25:34;2.40;;;1.90;;
5175;SDS011;2607;50.934;6.934;2022-07-18T07:28:01;6.73;;;1.97;;
5175;SDS011;2607;50.934;6.934;2022-07-18T07:30:27;4.63;;;1.60;;
5175;SDS011;2607;50.934;6.934;2022-07-18T07:32:53;4.07;;;1.93;;
5175;SDS011;2607;50.934;6.934;2022-07-18T07:35:19;4.30;;;1.90;;
5175;SDS011;2607;50.934;6.934;2022-07-18T07:37:47;2.30;;;1.90;;
5175;SDS011;2607;50.934;6.934;2022-07-18T07:40:17;3.70;;;1.77;;
5175;SDS011;2607;50.934;6.934;2022-07-18T07:42:43;2.33;;;2.00;;
5175;SDS011;2607;50.934;6.934;2022-07-18T07:45:09;8.93;;;2.63;;
5175;SDS011;2607;50.934;6.934;2022-07-18T07:47:36;6.77;;;2.60;;
5175;SDS011;2607;50.934;6.934;2022-07-18T07:50:02;3.13;;;2.00;;
5175;SDS011;2607;50.934;6.934;2022-07-18T07:52:29;1.90;;;1.80;;
5175;SDS011;2607;50.934;6.934;2022-07-18T07:54:55;8.83;;;1.77;;
5175;SDS011;2607;50.934;6.934;2022-07-18T07:57:20;4.37;;;1.80;;
5175;SDS011;2607;50.934;6.934;2022-07-18T07:59:46;9.77;;;2.70;;
5175;SDS011;2607;50.934;6.934;2022-07-18T08:02:12;2.50;;;1.90;;
5175;SDS011;2607;50.934;6.934;2022-07-18T08:04:40;12.33;;;2.03;;
5175;SDS011;2607;50.934;6.934;2022-07-18T08:07:06;9.20;;;2.30;;
5175;SDS011;2607;50.934;6.934;2022-07-18T08:09:32;2.83;;;2.20;;
5175;SDS011;2607;50.934;6.934;2022-07-18T08:11:58;13.23;;;2.97;;
5175;SDS011;2607;50.934;6.934;2022-07-18T08:14:23;4.97;;;1.83;;
5175;SDS011;2607;50.934;6.934;2022-07-18T08:16:49;8.20;;;2.30;;
5175;SDS011;2607;50.934;6.934;2022-07-18T08:19:14;6.20;;;2.20;;
5175;SDS011;2607;50.934;6.934;2022-07-18T08:21:40;14.37;;;2.60;;
5175;SDS011;2607;50.934;6.934;2022-07-18T08:24:06;10.80;;;1.80;;
5175;SDS011;2607;50.934;6.934;2022-07-18T08:26:32;3.73;;;2.00;;
5175;SDS011;2607;50.934;6.934;2022-07-18T08:28:59;8.57;;;2.10;;
5175;SDS011;2607;50.934;6.934;2022-07-18T08:31:24;6.60;;;1.97;;
5175;SDS011;2607;50.934;6.934;2022-07-18T08:33:50;5.30;;;2.30;;
5175;SDS011;2607;50.934;6.934;2022-07-18T08:36:16;5.63;;;2.10;;
5175;SDS011;2607;50.934;6.934;2022-07-18T08:38:41;4.17;;;1.90;;
5175;SDS011;2607;50.934;6.934;2022-07-18T08:41:07;7.40;;;2.30;;
5175;SDS011;2607;50.934;6.934;2022-07-18T08:43:34;3.97;;;2.10;;
5175;SDS011;2607;50.934;6.934;2022-07-18T08:46:01;3.50;;;2.00;;
5175;SDS011;2607;50.934;6.934;2022-07-18T08:48:28;4.83;;;2.40;;
5175;SDS011;2607;50.934;6.934;2022-07-18T08:50:54;3.27;;;2.00;;
5175;SDS011;2607;50.934;6.934;2022-07-18T08:53:20;1.80;;;1.70;;
5175;SDS011;2607;50.934;6.934;2022-07-18T08:55:46;13.03;;;2.20;;
5175;SDS011;2607;50.934;6.934;2022-07-18T08:58:12;10.83;;;2.10;;
5175;SDS011;2607;50.934;6.934;2022-07-18T09:00:39;4.97;;;2.10;;
5175;SDS011;2607;50.934;6.934;2022-07-18T09:03:06;4.20;;;1.70;;
5175;SDS011;2607;50.934;6.934;2022-07-18T09:05:32;1.90;;;1.80;;
5175;SDS011;2607;50.934;6.934;2022-07-18T09:08:17;1.57;;;1.47;;
5175;SDS011;2607;50.934;6.934;2022-07-18T09:10:53;4.17;;;2.10;;
5175;SDS011;2607;50.934;6.934;2022-07-18T09:13:24;2.60;;;2.40;;
5175;SDS011;2607;50.934;6.934;2022-07-18T09:16:04;4.07;;;1.97;;
5175;SDS011;2607;50.934;6.934;2022-07-18T09:18:38;5.93;;;3.00;;
5175;SDS011;2607;50.934;6.934;2022-07-18T09:21:06;6.90;;;2.20;;
5175;SDS011;2607;50.934;6.934;2022-07-18T09:23:33;5.20;;;2.43;;
5175;SDS011;2607;50.934;6.934;2022-07-18T09:26:01;5.70;;;2.73;;
5175;SDS011;2607;50.934;6.934;2022-07-18T09:28:28;5.60;;;2.20;;
5175;SDS011;2607;50.934;6.934;2022-07-18T09:31:19;5.23;;;1.90;;
5175;SDS011;2607;50.934;6.934;2022-07-18T09:33:56;11.23;;;2.50;;
5175;SDS011;2607;50.934;6.934;2022-07-18T09:36:29;3.30;;;1.63;;
5175;SDS011;2607;50.934;6.934;2022-07-18T09:38:58;5.90;;;2.03;;
5175;SDS011;2607;50.934;6.934;2022-07-18T09:41:24;6.10;;;2.63;;
5175;SDS011;2607;50.934;6.934;2022-07-18T09:43:52;3.97;;;2.00;;
5175;SDS011;2607;50.934;6.934;2022-07-18T09:46:18;4.30;;;2.47;;
5175;SDS011;2607;50.934;6.934;2022-07-18T09:48:44;3.57;;;2.60;;
5175;SDS011;2607;50.934;6.934;2022-07-18T09:51:10;2.90;;;1.90;;
5175;SDS011;2607;50.934;6.934;2022-07-18T09:53:42;4.90;;;2.60;;
5175;SDS011;2607;50.934;6.934;2022-07-18T09:56:12;8.73;;;2.27;;
5175;SDS011;2607;50.934;6.934;2022-07-18T09:58:51;2.60;;;2.00;;
5175;SDS011;2607;50.934;6.934;2022-07-18T10:01:22;2.10;;;1.70;;
5175;SDS011;2607;50.934;6.934;2022-07-18T10:03:49;2.97;;;1.90;;
5175;SDS011;2607;50.934;6.934;2022-07-18T10:06:15;1.60;;;1.50;;
5175;SDS011;2607;50.934;6.934;2022-07-18T10:08:43;2.80;;;1.60;;
5175;SDS011;2607;50.934;6.934;2022-07-18T10:11:09;1.87;;;1.77;;
5175;SDS011;2607;50.934;6.934;2022-07-18T10:13:36;2.20;;;2.10;;
5175;SDS011;2607;50.934;6.934;2022-07-18T10:16:03;3.07;;;1.60;;
5175;SDS011;2607;50.934;6.934;2022-07-18T10:18:31;1.83;;;1.47;;
5175;SDS011;2607;50.934;6.934;2022-07-18T10:21:05;1.37;;;1.33;;
5175;SDS011;2607;50.934;6.934;2022-07-18T10:23:45;1.93;;;1.60;;
5175;SDS011;2607;50.934;6.934;2022-07-18T10:31:28;3.77;;;3.47;;
5175;SDS011;2607;50.934;6.934;2022-07-18T10:39:20;4.17;;;2.60;;
5175;SDS011;2607;50.934;6.934;2022-07-18T10:47:04;2.80;;;2.10;;
5175;SDS011;2607;50.934;6.934;2022-07-18T10:55:25;2.23;;;2.10;;
5175;SDS011;2607;50.934;6.934;2022-07-18T10:57:42;6.90;;;4.67;;
5175;SDS011;2607;50.934;6.934;2022-07-18T11:13:40;8.70;;;4.87;;
5175;SDS011;2607;50.934;6.934;2022-07-18T11:23:46;5.27;;;4.50;;
5175;SDS011;2607;50.934;6.934;2022-07-18T11:26:23;2.00;;;1.67;;
5175;SDS011;2607;50.934;6.934;2022-07-18T11:28:56;4.83;;;2.30;;
5175;SDS011;2607;50.934;6.934;2022-07-18T11:31:28;2.07;;;1.90;;
5175;SDS011;2607;50.934;6.934;2022-07-18T11:33:55;5.13;;;3.33;;
5175;SDS011;2607;50.934;6.934;2022-07-18T11:36:27;3.33;;;2.83;;
5175;SDS011;2607;50.934;6.934;2022-07-18T11:38:56;1.83;;;1.73;;
5175;SDS011;2607;50.934;6.934;2022-07-18T11:41:24;4.20;;;1.90;;
5175;SDS011;2607;50.934;6.934;2022-07-18T11:43:50;7.83;;;3.37;;
5175;SDS011;2607;50.934;6.934;2022-07-18T11:46:18;5.50;;;5.00;;
5175;SDS011;2607;50.934;6.934;2022-07-18T11:48:46;3.50;;;3.20;;
5175;SDS011;2607;50.934;6.934;2022-07-18T11:51:17;5.47;;;2.97;;
5175;SDS011;2607;50.934;6.934;2022-07-18T11:56:09;2.93;;;2.73;;
5175;SDS011;2607;50.934;6.934;2022-07-18T11:58:36;3.03;;;2.77;;
5175;SDS011;2607;50.934;6.934;2022-07-18T12:01:02;2.70;;;2.50;;
5175;SDS011;2607;50.934;6.934;2022-07-18T12:03:28;3.83;;;2.23;;
5175;SDS011;2607;50.934;6.934;2022-07-18T12:05:54;2.83;;;2.63;;
5175;SDS011;2607;50.934;6.934;2022-07-18T12:21:40;1.93;;;1.83;;
5175;SDS011;2607;50.934;6.934;2022-07-18T12:24:25;1.97;;;1.87;;
5175;SDS011;2607;50.934;6.934;2022-07-18T12:32:49;7.47;;;1.70;;
5175;SDS011;2607;50.934;6.934;2022-07-18T12:35:23;2.30;;;2.10;;
5175;SDS011;2607;50.934;6.934;2022-07-18T12:40:38;44.20;;;31.92;;
5175;SDS011;2607;50.934;6.934;2022-07-18T12:43:11;75.93;;;55.50;;
5175;SDS011;2607;50.934;6.934;2022-07-18T12:45:42;105.28;;;80.78;;
5175;SDS011;2607;50.934;6.934;2022-07-18T12:48:09;92.45;;;66.57;;
5175;SDS011;2607;50.934;6.934;2022-07-18T12:50:36;59.78;;;48.03;;
5175;SDS011;2607;50.934;6.934;2022-07-18T12:53:02;73.35;;;57.83;;
5175;SDS011;2607;50.934;6.934;2022-07-18T12:55:28;59.42;;;47.67;;
5175;SDS011;2607;50.934;6.934;2022-07-18T12:57:54;69.65;;;55.67;;
5175;SDS011;2607;50.934;6.934;2022-07-18T13:00:19;58.28;;;48.80;;
5175;SDS011;2607;50.934;6.934;2022-07-18T13:02:46;61.83;;;47.67;;
5175;SDS011;2607;50.934;6.934;2022-07-18T13:05:11;57.08;;;45.92;;
5175;SDS011;2607;50.934;6.934;2022-07-18T13:07:37;46.10;;;38.63;;
5175;SDS011;2607;50.934;6.934;2022-07-18T13:10:03;37.97;;;30.42;;
5175;SDS011;2607;50.934;6.934;2022-07-18T13:12:30;49.95;;;39.70;;
5175;SDS011;2607;50.934;6.934;2022-07-18T13:14:56;41.33;;;32.97;;
5175;SDS011;2607;50.934;6.934;2022-07-18T13:17:21;38.67;;;30.08;;
5175;SDS011;2607;50.934;6.934;2022-07-18T13:19:47;39.55;;;30.27;;
5175;SDS011;2607;50.934;6.934;2022-07-18T13:22:14;41.97;;;34.57;;
5175;SDS011;2607;50.934;6.934;2022-07-18T13:24:40;37.57;;;30.73;;
5175;SDS011;2607;50.934;6.934;2022-07-18T13:27:05;18.67;;;16.52;;
5175;SDS011;2607;50.934;6.934;2022-07-18T13:29:31;26.93;;;23.73;;
5175;SDS011;2607;50.934;6.934;2022-07-18T13:31:58;21.73;;;18.50;;
5175;SDS011;2607;50.934;6.934;2022-07-18T13:34:23;26.30;;;23.10;;
5175;SDS011;2607;50.934;6.934;2022-07-18T13:36:50;15.65;;;13.40;;
5175;SDS011;2607;50.934;6.934;2022-07-18T13:39:17;11.03;;;7.70;;
5175;SDS011;2607;50.934;6.934;2022-07-18T13:41:43;121.17;;;94.73;;
5175;SDS011;2607;50.934;6.934;2022-07-18T13:44:09;67.10;;;50.67;;
5175;SDS011;2607;50.934;6.934;2022-07-18T13:46:35;78.43;;;59.67;;
5175;SDS011;2607;50.934;6.934;2022-07-18T13:49:00;54.92;;;40.33;;
5175;SDS011;2607;50.934;6.934;2022-07-18T13:51:26;40.38;;;33.30;;
5175;SDS011;2607;50.934;6.934;2022-07-18T13:53:52;27.60;;;23.17;;
5175;SDS011;2607;50.934;6.934;2022-07-18T13:56:17;29.25;;;22.63;;
5175;SDS011;2607;50.934;6.934;2022-07-18T13:58:43;29.67;;;21.57;;
5175;SDS011;2607;50.934;6.934;2022-07-18T14:01:08;122.63;;;91.07;;
5175;SDS011;2607;50.934;6.934;2022-07-18T14:03:34;189.43;;;137.70;;
5175;SDS011;2607;50.934;6.934;2022-07-18T14:06:00;136.43;;;100.70;;
5175;SDS011;2607;50.934;6.934;2022-07-18T14:08:25;149.83;;;113.80;;
5175;SDS011;2607;50.934;6.934;2022-07-18T14:10:51;113.63;;;88.40;;
5175;SDS011;2607;50.934;6.934;2022-07-18T14:13:16;95.43;;;67.70;;
5175;SDS011;2607;50.934;6.934;2022-07-18T14:15:42;136.20;;;88.13;;
5175;SDS011;2607;50.934;6.934;2022-07-18T14:18:08;124.80;;;91.17;;
5175;SDS011;2607;50.934;6.934;2022-07-18T14:20:33;101.00;;;76.63;;
5175;SDS011;2607;50.934;6.934;2022-07-18T14:22:59;102.27;;;78.63;;
5175;SDS011;2607;50.934;6.934;2022-07-18T14:25:25;52.70;;;42.17;;
5175;SDS011;2607;50.934;6.934;2022-07-18T14:27:50;55.30;;;41.07;;
5175;SDS011;2607;50.934;6.934;2022-07-18T14:30:16;44.83;;;36.27;;
5175;SDS011;2607;50.934;6.934;2022-07-18T14:32:42;24.73;;;20.13;;
5175;SDS011;2607;50.934;6.934;2022-07-18T14:35:08;38.70;;;31.40;;
5175;SDS011;2607;50.934;6.934;2022-07-18T14:37:35;48.07;;;35.43;;
5175;SDS011;2607;50.934;6.934;2022-07-18T14:40:01;57.43;;;44.30;;
5175;SDS011;2607;50.934;6.934;2022-07-18T14:42:28;36.00;;;23.93;;
5175;SDS011;2607;50.934;6.934;2022-07-18T14:44:53;50.37;;;41.97;;
5175;SDS011;2607;50.934;6.934;2022-07-18T14:47:20;24.47;;;19.87;;
5175;SDS011;2607;50.934;6.934;2022-07-18T14:49:46;41.93;;;29.77;;
5175;SDS011;2607;50.934;6.934;2022-07-18T14:52:12;11.60;;;9.40;;
5175;SDS011;2607;50.934;6.934;2022-07-18T14:54:37;20.30;;;15.13;;
5175;SDS011;2607;50.934;6.934;2022-07-18T14:57:03;30.87;;;25.10;;
5175;SDS011;2607;50.934;6.934;2022-07-18T14:59:29;33.87;;;26.80;;
5175;SDS011;2607;50.934;6.934;2022-07-18T15:01:55;21.57;;;14.27;;
5175;SDS011;2607;50.934;6.934;2022-07-18T15:04:21;18.50;;;16.07;;
5175;SDS011;2607;50.934;6.934;2022-07-18T15:06:47;29.53;;;22.67;;
5175;SDS011;2607;50.934;6.934;2022-07-18T15:09:13;14.30;;;11.60;;
5175;SDS011;2607;50.934;6.934;2022-07-18T15:11:39;22.33;;;17.37;;
5175;SDS011;2607;50.934;6.934;2022-07-18T15:14:05;11.57;;;10.10;;
5175;SDS011;2607;50.934;6.934;2022-07-18T15:16:30;23.00;;;18.77;;
5175;SDS011;2607;50.934;6.934;2022-07-18T15:18:56;21.17;;;17.67;;
5175;SDS011;2607;50.934;6.934;2022-07-18T15:21:21;33.70;;;26.47;;
5175;SDS011;2607;50.934;6.934;2022-07-18T15:23:47;165.10;;;109.93;;
5175;SDS011;2607;50.934;6.934;2022-07-18T15:26:13;125.30;;;91.60;;
5175;SDS011;2607;50.934;6.934;2022-07-18T15:28:38;167.33;;;123.80;;
5175;SDS011;2607;50.934;6.934;2022-07-18T15:31:04;116.90;;;85.37;;
5175;SDS011;2607;50.934;6.934;2022-07-18T15:33:29;92.80;;;70.97;;
5175;SDS011;2607;50.934;6.934;2022-07-18T15:35:55;62.03;;;45.63;;
5175;SDS011;2607;50.934;6.934;2022-07-18T15:38:21;86.60;;;64.37;;
5175;SDS011;2607;50.934;6.934;2022-07-18T15:40:47;69.60;;;51.20;;
5175;SDS011;2607;50.934;6.934;2022-07-18T15:43:13;94.27;;;70.83;;
5175;SDS011;2607;50.934;6.934;2022-07-18T15:45:39;78.07;;;55.37;;
5175;SDS011;2607;50.934;6.934;2022-07-18T15:48:04;109.37;;;83.20;;
5175;SDS011;2607;50.934;6.934;2022-07-18T15:50:30;61.67;;;48.70;;
5175;SDS011;2607;50.934;6.934;2022-07-18T15:52:56;85.20;;;63.07;;
5175;SDS011;2607;50.934;6.934;2022-07-18T15:55:22;69.67;;;51.53;;
5175;SDS011;2607;50.934;6.934;2022-07-18T15:57:48;21.07;;;16.53;;
5175;SDS011;2607;50.934;6.934;2022-07-18T16:00:13;15.23;;;12.13;;
5175;SDS011;2607;50.934;6.934;2022-07-18T16:02:39;62.10;;;45.90;;
5175;SDS011;2607;50.934;6.934;2022-07-18T16:05:05;121.43;;;92.57;;
5175;SDS011;2607;50.934;6.934;2022-07-18T16:07:31;202.00;;;152.20;;
5175;SDS011;2607;50.934;6.934;2022-07-18T16:09:56;207.77;;;157.07;;
5175;SDS011;2607;50.934;6.934;2022-07-18T16:12:22;123.77;;;92.17;;